createdAt,value
2022-11-08T00:00:54.821Z,100.00
2022-11-08T00:03:21.527Z,100.00
2022-11-08T00:06:06.647Z,100.00
2022-11-08T00:08:51.998Z,100.00
2022-11-08T00:11:37.159Z,100.00
2022-11-08T00:14:03.780Z,100.00
2022-11-08T00:16:30.352Z,100.00
2022-11-08T00:18:57.291Z,100.00
2022-11-08T00:21:23.893Z,100.00
2022-11-08T00:23:50.497Z,100.00
2022-11-08T00:26:17.110Z,100.00
2022-11-08T00:28:43.682Z,100.00
2022-11-08T00:31:10.270Z,100.00
2022-11-08T00:33:37.450Z,100.00
2022-11-08T00:36:04.550Z,100.00
2022-11-08T00:38:31.144Z,100.00
2022-11-08T00:40:57.768Z,100.00
2022-11-08T00:43:24.398Z,100.00
2022-11-08T00:45:50.992Z,100.00
2022-11-08T00:48:17.870Z,100.00
2022-11-08T00:50:44.655Z,100.00
2022-11-08T00:53:11.271Z,100.00
2022-11-08T00:55:37.894Z,100.00
2022-11-08T00:58:04.541Z,100.00
2022-11-08T01:00:31.182Z,100.00
2022-11-08T01:03:16.079Z,100.00
2022-11-08T01:05:42.702Z,100.00
2022-11-08T01:08:11.115Z,100.00
2022-11-08T01:10:40.477Z,100.00
2022-11-08T01:13:07.093Z,100.00
2022-11-08T01:15:38.575Z,100.00
2022-11-08T01:18:05.271Z,100.00
2022-11-08T01:20:32.589Z,100.00
2022-11-08T01:22:59.251Z,100.00
2022-11-08T01:25:26.014Z,100.00
2022-11-08T01:27:52.604Z,100.00
2022-11-08T01:30:19.306Z,100.00
2022-11-08T01:32:45.915Z,100.00
2022-11-08T01:35:12.510Z,100.00
2022-11-08T01:37:39.083Z,100.00
2022-11-08T01:40:06.331Z,100.00
2022-11-08T01:42:33.540Z,100.00
2022-11-08T01:45:01.180Z,100.00
2022-11-08T01:47:27.972Z,100.00
2022-11-08T01:50:03.306Z,100.00
2022-11-08T01:52:33.007Z,100.00
2022-11-08T01:55:07.626Z,100.00
2022-11-08T01:58:19.599Z,100.00
2022-11-08T02:00:46.707Z,100.00
2022-11-08T02:03:18.582Z,100.00
2022-11-08T02:05:46.139Z,100.00
2022-11-08T02:08:28.147Z,100.00
2022-11-08T02:10:54.940Z,100.00
2022-11-08T02:13:25.105Z,100.00
2022-11-08T02:15:52.532Z,100.00
2022-11-08T02:18:21.575Z,100.00
2022-11-08T02:20:54.207Z,100.00
2022-11-08T02:23:28.866Z,100.00
2022-11-08T02:25:55.682Z,100.00
2022-11-08T02:28:22.344Z,100.00
2022-11-08T02:30:48.948Z,100.00
2022-11-08T02:33:17.949Z,100.00
2022-11-08T02:35:48.623Z,100.00
2022-11-08T02:38:16.099Z,100.00
2022-11-08T02:40:51.300Z,100.00
2022-11-08T02:43:18.124Z,100.00
2022-11-08T02:45:45.266Z,100.00
2022-11-08T02:48:12.966Z,100.00
2022-11-08T02:50:40.106Z,100.00
2022-11-08T02:53:08.014Z,100.00
2022-11-08T02:55:35.549Z,100.00
2022-11-08T02:58:02.664Z,100.00
2022-11-08T03:00:30.079Z,100.00
2022-11-08T03:02:58.153Z,100.00
2022-11-08T03:05:26.450Z,100.00
2022-11-08T03:07:56.845Z,100.00
2022-11-08T03:10:25.083Z,100.00
2022-11-08T03:12:59.411Z,100.00
2022-11-08T03:15:26.940Z,100.00
2022-11-08T03:17:53.771Z,100.00
2022-11-08T03:20:20.368Z,100.00
2022-11-08T03:22:47.357Z,100.00
2022-11-08T03:25:14.225Z,100.00
2022-11-08T03:27:40.803Z,100.00
2022-11-08T03:30:08.081Z,100.00
2022-11-08T03:32:34.684Z,100.00
2022-11-08T03:35:01.301Z,100.00
2022-11-08T03:37:27.963Z,100.00
2022-11-08T03:39:54.592Z,100.00
2022-11-08T03:42:21.210Z,100.00
2022-11-08T03:44:47.804Z,100.00
2022-11-08T03:47:14.822Z,100.00
2022-11-08T03:49:41.589Z,100.00
2022-11-08T03:52:08.202Z,100.00
2022-11-08T03:54:34.821Z,100.00
2022-11-08T03:57:01.450Z,100.00
2022-11-08T03:59:28.023Z,99.95
2022-11-08T04:01:54.755Z,99.00
2022-11-08T04:04:21.475Z,98.92
2022-11-08T04:06:48.054Z,98.60
2022-11-08T04:09:19.008Z,98.02
2022-11-08T04:12:06.502Z,97.58
2022-11-08T04:14:51.884Z,98.43
2022-11-08T04:17:18.479Z,98.28
2022-11-08T04:20:03.362Z,98.86
2022-11-08T04:22:29.959Z,98.84
2022-11-08T04:24:56.536Z,99.08
2022-11-08T04:27:23.131Z,98.75
2022-11-08T04:29:49.769Z,98.51
2022-11-08T04:32:16.379Z,98.42
2022-11-08T04:34:42.943Z,98.42
2022-11-08T04:37:09.528Z,97.96
2022-11-08T04:39:36.121Z,97.86
2022-11-08T04:42:03.121Z,97.60
2022-11-08T04:44:29.714Z,97.84
2022-11-08T04:46:56.550Z,97.45
2022-11-08T04:49:23.095Z,97.10
2022-11-08T04:51:49.714Z,96.60
2022-11-08T04:54:16.271Z,96.35
2022-11-08T04:56:42.918Z,95.48
2022-11-08T04:59:12.015Z,95.56
2022-11-08T05:01:39.430Z,95.24
2022-11-08T05:04:06.138Z,95.62
2022-11-08T05:06:32.840Z,94.93
2022-11-08T05:08:59.946Z,94.62
2022-11-08T05:11:29.075Z,94.82
2022-11-08T05:13:56.852Z,94.49
2022-11-08T05:16:26.015Z,94.48
2022-11-08T05:18:53.216Z,94.26
2022-11-08T05:21:40.102Z,94.02
2022-11-08T05:24:08.687Z,93.19
2022-11-08T05:26:37.711Z,92.88
2022-11-08T05:29:05.591Z,93.36
2022-11-08T05:31:32.450Z,92.95
2022-11-08T05:34:00.732Z,93.08
2022-11-08T05:36:28.412Z,92.64
2022-11-08T05:38:56.086Z,92.55
2022-11-08T05:41:24.370Z,92.50
2022-11-08T05:43:53.365Z,92.59
2022-11-08T05:46:21.183Z,92.17
2022-11-08T05:48:48.853Z,91.94
2022-11-08T05:51:17.444Z,91.61
2022-11-08T05:53:44.454Z,91.13
2022-11-08T05:56:11.058Z,90.30
2022-11-08T05:58:37.748Z,89.61
2022-11-08T06:01:10.458Z,89.39
2022-11-08T06:03:37.540Z,88.42
2022-11-08T06:06:06.671Z,88.36
2022-11-08T06:08:33.378Z,87.93
2022-11-08T06:11:09.178Z,87.65
2022-11-08T06:13:35.875Z,87.64
2022-11-08T06:16:04.848Z,87.13
2022-11-08T06:18:32.554Z,87.01
2022-11-08T06:21:00.014Z,86.71
2022-11-08T06:23:27.480Z,87.34
2022-11-08T06:25:54.539Z,86.47
2022-11-08T06:28:21.222Z,86.89
2022-11-08T06:30:47.929Z,86.46
2022-11-08T06:33:14.805Z,86.12
2022-11-08T06:35:41.690Z,85.94
2022-11-08T06:38:09.645Z,86.86
2022-11-08T06:40:38.353Z,87.08
2022-11-08T06:43:05.552Z,86.49
2022-11-08T06:45:32.237Z,85.71
2022-11-08T06:48:01.271Z,85.21
2022-11-08T06:50:29.467Z,85.03
2022-11-08T06:53:01.565Z,84.77
2022-11-08T06:55:29.217Z,84.73
2022-11-08T06:57:56.307Z,84.32
2022-11-08T07:00:23.330Z,84.25
2022-11-08T07:02:54.458Z,83.31
2022-11-08T07:05:21.470Z,81.87
2022-11-08T07:07:52.041Z,81.58
2022-11-08T07:10:23.722Z,81.98
2022-11-08T07:12:58.835Z,82.17
2022-11-08T07:15:25.487Z,81.60
2022-11-08T07:17:52.182Z,81.83
2022-11-08T07:20:18.904Z,80.85
2022-11-08T07:22:45.543Z,80.03
2022-11-08T07:25:12.111Z,81.19
2022-11-08T07:27:38.710Z,80.37
2022-11-08T07:30:06.069Z,80.69
2022-11-08T07:32:32.637Z,80.08
2022-11-08T07:34:59.269Z,80.37
2022-11-08T07:37:25.823Z,80.10
2022-11-08T07:39:52.509Z,79.21
2022-11-08T07:42:19.237Z,79.62
2022-11-08T07:44:58.904Z,79.04
2022-11-08T07:47:25.579Z,78.05
2022-11-08T07:49:52.188Z,76.80
2022-11-08T07:52:18.875Z,76.29
2022-11-08T07:54:45.458Z,77.24
2022-11-08T07:57:12.279Z,78.37
2022-11-08T07:59:38.890Z,77.80
2022-11-08T08:02:05.586Z,76.73
2022-11-08T08:04:32.761Z,76.35
2022-11-08T08:06:59.330Z,75.25
2022-11-08T08:09:25.934Z,75.06
2022-11-08T08:11:52.533Z,74.87
2022-11-08T08:14:19.213Z,73.50
2022-11-08T08:16:45.802Z,74.31
2022-11-08T08:19:12.413Z,72.09
2022-11-08T08:21:39.112Z,71.91
2022-11-08T08:24:06.014Z,72.66
2022-11-08T08:26:32.607Z,72.98
2022-11-08T08:28:59.255Z,73.21
2022-11-08T08:31:25.912Z,72.50
2022-11-08T08:33:52.520Z,71.53
2022-11-08T08:36:19.105Z,71.16
2022-11-08T08:38:45.700Z,71.05
2022-11-08T08:41:12.291Z,70.26
2022-11-08T08:43:38.948Z,69.49
2022-11-08T08:46:06.469Z,68.55
2022-11-08T08:48:33.672Z,68.78
2022-11-08T08:51:00.317Z,68.66
2022-11-08T08:53:26.915Z,69.74
2022-11-08T08:55:53.624Z,69.38
2022-11-08T08:58:21.042Z,69.18
2022-11-08T09:03:35.548Z,69.33
2022-11-08T09:06:02.684Z,68.31
2022-11-08T09:08:29.955Z,68.24
2022-11-08T09:10:58.107Z,68.07
2022-11-08T09:13:26.373Z,66.24
2022-11-08T09:15:53.578Z,67.48
2022-11-08T09:18:20.732Z,68.61
2022-11-08T09:20:47.627Z,69.27
2022-11-08T09:23:19.350Z,70.12
2022-11-08T09:25:46.239Z,68.54
2022-11-08T09:28:12.848Z,69.28
2022-11-08T09:30:39.514Z,67.19
2022-11-08T09:33:07.275Z,64.48
2022-11-08T09:35:34.158Z,64.33
2022-11-08T09:38:00.760Z,65.36
2022-11-08T09:41:01.207Z,65.35
2022-11-08T09:43:52.946Z,65.66
2022-11-08T09:46:39.478Z,66.39
2022-11-08T09:49:15.213Z,66.93
2022-11-08T09:51:42.227Z,66.91
2022-11-08T09:54:26.208Z,66.42
2022-11-08T09:56:55.433Z,67.07
2022-11-08T09:59:36.243Z,65.10
2022-11-08T10:02:03.533Z,66.89
2022-11-08T10:04:32.945Z,66.70
2022-11-08T10:07:41.556Z,66.16
2022-11-08T10:10:17.015Z,66.38
2022-11-08T10:12:43.885Z,65.83
2022-11-08T10:15:36.843Z,66.97
2022-11-08T10:18:22.263Z,68.25
2022-11-08T10:20:57.303Z,68.51
2022-11-08T10:23:43.922Z,67.99
2022-11-08T10:26:21.631Z,69.23
2022-11-08T10:29:03.195Z,68.80
2022-11-08T10:31:35.147Z,69.62
2022-11-08T10:34:09.257Z,68.60
2022-11-08T10:36:43.565Z,69.40
2022-11-08T10:39:14.211Z,69.80
2022-11-08T10:42:02.237Z,69.05
2022-11-08T10:44:29.351Z,69.56
2022-11-08T10:46:55.899Z,70.19
2022-11-08T10:49:34.386Z,69.13
2022-11-08T10:52:13.574Z,68.46
2022-11-08T10:54:40.129Z,68.84
2022-11-08T10:57:07.372Z,68.91
2022-11-08T10:59:33.992Z,69.76
2022-11-08T11:02:00.894Z,68.86
2022-11-08T11:04:33.066Z,69.70
2022-11-08T11:07:23.752Z,69.50
2022-11-08T11:09:50.450Z,69.36
2022-11-08T11:12:17.024Z,69.71
2022-11-08T11:14:43.635Z,68.80
2022-11-08T11:17:18.596Z,68.99
2022-11-08T11:19:54.860Z,68.82
2022-11-08T11:22:31.358Z,68.19
2022-11-08T11:25:12.766Z,68.04
2022-11-08T11:27:41.623Z,66.24
2022-11-08T11:30:28.181Z,66.73
2022-11-08T11:33:21.502Z,66.78
2022-11-08T11:35:53.134Z,65.39
2022-11-08T11:38:29.018Z,64.22
2022-11-08T11:41:00.806Z,66.06
2022-11-08T11:43:38.183Z,65.67
2022-11-08T11:46:23.471Z,64.75
2022-11-08T11:49:00.823Z,64.56
2022-11-08T11:51:30.034Z,63.65
2022-11-08T11:53:58.254Z,65.10
2022-11-08T11:56:27.593Z,64.71
2022-11-08T11:58:56.978Z,63.58
2022-11-08T12:01:31.653Z,64.87
2022-11-08T12:04:21.631Z,63.64
2022-11-08T12:07:18.320Z,62.49
2022-11-08T12:10:00.030Z,62.44
2022-11-08T12:12:33.024Z,63.22
2022-11-08T12:15:24.747Z,63.39
2022-11-08T12:18:42.070Z,62.16
2022-11-08T12:21:14.932Z,61.94
2022-11-08T12:23:52.311Z,62.54
2022-11-08T12:26:40.216Z,62.77
2022-11-08T12:29:22.703Z,62.72
2022-11-08T12:32:27.521Z,61.37
2022-11-08T12:35:19.634Z,61.77
2022-11-08T12:38:12.586Z,61.28
2022-11-08T12:40:44.905Z,61.59
2022-11-08T12:43:41.890Z,62.54
2022-11-08T12:46:13.099Z,62.31
2022-11-08T12:49:16.297Z,62.60
2022-11-08T12:52:01.542Z,62.16
2022-11-08T12:54:54.363Z,62.44
2022-11-08T12:57:27.571Z,63.38
2022-11-08T13:00:14.592Z,64.37
2022-11-08T13:02:43.342Z,64.44
2022-11-08T13:05:20.939Z,63.93
2022-11-08T13:07:57.569Z,65.21
2022-11-08T13:10:27.018Z,65.19
2022-11-08T13:13:15.832Z,63.68
2022-11-08T13:16:07.589Z,65.26
2022-11-08T13:18:36.071Z,65.44
2022-11-08T13:21:28.347Z,63.78
2022-11-08T13:24:42.964Z,63.27
2022-11-08T13:27:30.245Z,62.36
2022-11-08T13:30:02.646Z,63.10
2022-11-08T13:32:54.218Z,62.24
2022-11-08T13:35:48.322Z,63.41
2022-11-08T13:38:30.921Z,63.47
2022-11-08T13:41:09.798Z,64.36
2022-11-08T13:43:36.912Z,65.26
2022-11-08T13:46:27.902Z,64.49
2022-11-08T13:48:57.524Z,65.14
2022-11-08T13:51:32.556Z,64.74
2022-11-08T13:54:01.903Z,65.00
2022-11-08T13:56:47.725Z,65.60
2022-11-08T13:59:29.242Z,65.44
2022-11-08T14:01:59.098Z,65.53
2022-11-08T14:04:27.208Z,64.60
2022-11-08T14:07:01.312Z,64.77
2022-11-08T14:09:33.450Z,63.46
2022-11-08T14:12:28.687Z,64.29
2022-11-08T14:15:01.079Z,63.61
2022-11-08T14:17:33.601Z,64.41
2022-11-08T14:20:35.573Z,63.03
2022-11-08T14:23:12.140Z,63.41
2022-11-08T14:25:39.744Z,63.38
2022-11-08T14:28:24.097Z,62.94
2022-11-08T14:30:51.170Z,63.15
2022-11-08T14:33:19.661Z,62.64
2022-11-08T14:35:53.339Z,62.98
2022-11-08T14:38:20.134Z,62.60
2022-11-08T14:41:01.387Z,63.14
2022-11-08T14:43:29.475Z,63.32
2022-11-08T14:45:58.228Z,63.33
2022-11-08T14:48:29.879Z,63.41
2022-11-08T14:51:05.534Z,63.98
2022-11-08T14:53:34.401Z,64.68
2022-11-08T14:56:21.931Z,65.45
2022-11-08T14:58:50.283Z,65.02
2022-11-08T15:01:28.023Z,65.12
2022-11-08T15:04:20.463Z,64.60
2022-11-08T15:07:09.370Z,64.29
2022-11-08T15:09:36.311Z,64.99
2022-11-08T15:12:05.741Z,65.76
2022-11-08T15:14:50.023Z,65.16
2022-11-08T15:18:05.208Z,66.18
2022-11-08T15:20:31.951Z,66.04
2022-11-08T15:22:58.551Z,66.65
2022-11-08T15:25:35.049Z,66.57
2022-11-08T15:28:21.870Z,67.10
2022-11-08T15:30:56.340Z,68.00
2022-11-08T15:33:26.046Z,68.09
2022-11-08T15:35:52.915Z,68.20
2022-11-08T15:38:19.914Z,68.25
2022-11-08T15:40:52.199Z,68.57
2022-11-08T15:43:45.253Z,69.75
2022-11-08T15:46:28.037Z,69.04
2022-11-08T15:48:56.488Z,69.79
2022-11-08T15:51:23.071Z,70.41
2022-11-08T15:53:49.649Z,71.16
2022-11-08T15:56:16.587Z,70.16
2022-11-08T15:58:43.209Z,70.32
2022-11-08T16:01:20.236Z,71.29
2022-11-08T16:03:48.446Z,71.07
2022-11-08T16:06:15.527Z,70.89
2022-11-08T16:08:42.199Z,70.73
2022-11-08T16:11:18.575Z,70.55
2022-11-08T16:13:45.331Z,70.32
2022-11-08T16:16:15.193Z,70.88
2022-11-08T16:18:42.280Z,70.58
2022-11-08T16:21:13.718Z,70.97
2022-11-08T16:23:41.601Z,70.90
2022-11-08T16:26:15.983Z,71.26
2022-11-08T16:28:43.071Z,71.27
2022-11-08T16:31:18.066Z,71.45
2022-11-08T16:33:46.019Z,71.74
2022-11-08T16:36:18.496Z,71.80
2022-11-08T16:38:56.010Z,71.92
2022-11-08T16:41:24.157Z,71.96
2022-11-08T16:43:51.086Z,71.42
2022-11-08T16:46:21.500Z,71.60
2022-11-08T16:48:51.443Z,71.44
2022-11-08T16:51:22.409Z,72.14
2022-11-08T16:53:49.660Z,72.34
2022-11-08T16:56:16.347Z,72.48
2022-11-08T16:58:43.638Z,71.92
2022-11-08T17:01:17.273Z,71.92
2022-11-08T17:03:43.962Z,71.92
2022-11-08T17:06:15.748Z,72.16
2022-11-08T17:08:42.386Z,72.21
2022-11-08T17:11:15.881Z,72.11
2022-11-08T17:13:42.501Z,71.98
2022-11-08T17:16:11.468Z,72.01
2022-11-08T17:18:38.659Z,72.20
2022-11-08T17:21:37.764Z,72.59
2022-11-08T17:23:57.528Z,72.50
2022-11-08T17:26:24.155Z,72.73
2022-11-08T17:28:55.236Z,73.18
2022-11-08T17:31:21.845Z,72.75
2022-11-08T17:33:48.459Z,72.75
2022-11-08T17:36:15.346Z,73.26
2022-11-08T17:38:42.580Z,73.49
2022-11-08T17:41:13.521Z,73.78
2022-11-08T17:43:41.030Z,74.10
2022-11-08T17:46:08.475Z,74.20
2022-11-08T17:48:35.221Z,73.72
2022-11-08T17:51:01.868Z,73.86
2022-11-08T17:53:28.769Z,73.82
2022-11-08T17:56:00.943Z,74.15
2022-11-08T17:58:28.074Z,74.13
2022-11-08T18:00:57.314Z,74.33
2022-11-08T18:03:25.529Z,74.36
2022-11-08T18:06:21.866Z,74.07
2022-11-08T18:08:48.470Z,74.19
2022-11-08T18:11:15.243Z,74.24
2022-11-08T18:13:42.226Z,74.46
2022-11-08T18:16:17.621Z,74.50
2022-11-08T18:18:46.315Z,74.53
2022-11-08T18:21:13.814Z,74.30
2022-11-08T18:23:41.936Z,74.83
2022-11-08T18:26:09.655Z,75.17
2022-11-08T18:28:37.486Z,74.96
2022-11-08T18:31:06.109Z,75.39
2022-11-08T18:33:32.951Z,75.36
2022-11-08T18:36:20.477Z,75.31
2022-11-08T18:38:49.066Z,75.28
2022-11-08T18:41:22.154Z,75.03
2022-11-08T18:43:49.071Z,75.24
2022-11-08T18:46:18.993Z,75.11
2022-11-08T18:48:45.654Z,75.27
2022-11-08T18:51:14.480Z,75.47
2022-11-08T18:53:42.119Z,75.23
2022-11-08T18:56:10.016Z,75.64
2022-11-08T18:58:36.593Z,75.37
2022-11-08T19:01:03.795Z,75.73
2022-11-08T19:03:30.973Z,76.13
2022-11-08T19:05:57.633Z,75.53
2022-11-08T19:08:26.902Z,75.88
2022-11-08T19:10:58.997Z,76.18
2022-11-08T19:13:27.441Z,76.16
2022-11-08T19:16:00.850Z,76.54
2022-11-08T19:18:28.773Z,76.15
2022-11-08T19:21:03.679Z,76.52
2022-11-08T19:23:30.520Z,76.29
2022-11-08T19:26:05.842Z,76.35
2022-11-08T19:28:35.332Z,76.32
2022-11-08T19:31:02.000Z,76.95
2022-11-08T19:33:30.552Z,76.69
2022-11-08T19:36:08.859Z,76.85
2022-11-08T19:38:36.953Z,76.92
2022-11-08T19:41:05.100Z,77.19
2022-11-08T19:43:34.512Z,77.21
2022-11-08T19:46:03.425Z,77.13
2022-11-08T19:48:33.686Z,77.32
2022-11-08T19:51:02.008Z,77.33
2022-11-08T19:53:29.083Z,77.86
2022-11-08T19:56:07.427Z,77.98
2022-11-08T19:58:35.901Z,77.95
2022-11-08T20:01:13.421Z,77.94
2022-11-08T20:03:40.120Z,77.86
2022-11-08T20:06:07.955Z,77.51
2022-11-08T20:08:35.035Z,77.39
2022-11-08T20:11:09.480Z,77.36
2022-11-08T20:13:36.042Z,77.23
2022-11-08T20:16:17.234Z,78.09
2022-11-08T20:18:44.347Z,78.03
2022-11-08T20:21:12.765Z,78.67
2022-11-08T20:23:42.426Z,78.31
2022-11-08T20:26:13.952Z,78.63
2022-11-08T20:28:41.870Z,77.82
2022-11-08T20:31:11.790Z,78.26
2022-11-08T20:33:39.637Z,78.42
2022-11-08T20:36:13.181Z,78.10
2022-11-08T20:38:40.482Z,77.97
2022-11-08T20:41:10.054Z,78.08
2022-11-08T20:43:41.508Z,78.46
2022-11-08T20:46:12.172Z,78.14
2022-11-08T20:48:42.961Z,77.67
2022-11-08T20:51:11.471Z,78.77
2022-11-08T20:53:38.673Z,81.38
2022-11-08T20:56:10.752Z,86.71
2022-11-08T20:58:37.510Z,89.26
2022-11-08T21:01:06.332Z,92.14
2022-11-08T21:03:33.150Z,97.43
2022-11-08T21:06:05.620Z,99.50
2022-11-08T21:11:20.852Z,100.00
2022-11-08T21:13:47.765Z,100.00
2022-11-08T21:16:38.614Z,100.00
2022-11-08T21:19:02.955Z,100.00
2022-11-08T21:21:29.772Z,100.00
2022-11-08T21:23:56.683Z,100.00
2022-11-08T21:26:23.626Z,100.00
2022-11-08T21:28:50.988Z,99.99
2022-11-08T21:31:17.618Z,99.31
2022-11-08T21:33:44.200Z,99.79
2022-11-08T21:36:10.926Z,100.00
2022-11-08T21:38:38.564Z,99.77
2022-11-08T21:41:07.571Z,100.00
2022-11-08T21:43:36.258Z,100.00
2022-11-08T21:46:13.303Z,100.00
2022-11-08T21:48:40.171Z,100.00
2022-11-08T21:51:06.756Z,99.56
2022-11-08T21:53:33.390Z,98.75
2022-11-08T21:55:59.983Z,98.83
2022-11-08T21:58:26.699Z,99.00
2022-11-08T22:00:53.526Z,99.87
2022-11-08T22:03:20.172Z,99.56
2022-11-08T22:05:47.334Z,99.58
2022-11-08T22:08:13.898Z,98.76
2022-11-08T22:10:40.561Z,99.23
2022-11-08T22:13:07.222Z,99.47
2022-11-08T22:15:33.782Z,100.00
2022-11-08T22:18:14.982Z,100.00
2022-11-08T22:21:06.615Z,100.00
2022-11-08T22:23:36.918Z,100.00
2022-11-08T22:26:03.854Z,100.00
2022-11-08T22:28:30.579Z,100.00
2022-11-08T22:30:57.152Z,99.76
2022-11-08T22:33:23.792Z,100.00
2022-11-08T22:35:50.371Z,100.00
2022-11-08T22:38:17.502Z,100.00
2022-11-08T22:40:45.935Z,100.00
2022-11-08T22:43:12.615Z,100.00
2022-11-08T22:45:40.231Z,100.00
2022-11-08T22:48:08.260Z,100.00
2022-11-08T22:50:35.172Z,100.00
2022-11-08T22:53:01.822Z,100.00
2022-11-08T22:55:28.478Z,100.00
2022-11-08T22:57:55.354Z,100.00
2022-11-08T23:00:21.966Z,100.00
2022-11-08T23:02:48.643Z,100.00
2022-11-08T23:05:15.270Z,100.00
2022-11-08T23:07:41.868Z,100.00
2022-11-08T23:10:08.736Z,100.00
2022-11-08T23:12:53.956Z,100.00
2022-11-08T23:15:39.065Z,100.00
2022-11-08T23:18:05.652Z,100.00
2022-11-08T23:20:51.617Z,100.00
2022-11-08T23:23:36.618Z,100.00
2022-11-08T23:26:03.429Z,100.00
2022-11-08T23:28:49.407Z,100.00
2022-11-08T23:31:34.797Z,100.00
2022-11-08T23:34:02.938Z,100.00
2022-11-08T23:36:29.898Z,100.00
2022-11-08T23:38:57.734Z,100.00
2022-11-08T23:41:42.959Z,100.00
2022-11-08T23:44:25.072Z,100.00
2022-11-08T23:46:56.109Z,100.00
2022-11-08T23:49:22.754Z,100.00
2022-11-08T23:51:49.439Z,100.00
2022-11-08T23:54:16.152Z,100.00
2022-11-08T23:56:43.386Z,100.00
2022-11-08T23:59:11.018Z,100.00
